createdAt,value
2019-02-24T00:00:40.246Z,15.30
2019-02-24T00:03:10.993Z,16.53
2019-02-24T00:05:41.249Z,16.17
2019-02-24T00:08:11.972Z,17.10
2019-02-24T00:10:42.217Z,17.57
2019-02-24T00:13:12.716Z,16.57
2019-02-24T00:15:43.037Z,22.17
2019-02-24T00:18:13.317Z,16.37
2019-02-24T00:20:43.540Z,18.50
2019-02-24T00:23:13.781Z,16.27
2019-02-24T00:25:44.104Z,18.20
2019-02-24T00:28:14.301Z,15.90
2019-02-24T00:30:44.759Z,14.30
2019-02-24T00:33:14.988Z,17.90
2019-02-24T00:35:45.277Z,38.97
2019-02-24T00:38:15.555Z,26.13
2019-02-24T00:40:45.753Z,22.67
2019-02-24T00:43:16.005Z,22.70
2019-02-24T00:45:46.260Z,19.07
2019-02-24T00:48:16.544Z,22.97
2019-02-24T00:50:46.781Z,23.50
2019-02-24T00:53:17.009Z,21.80
2019-02-24T00:55:47.259Z,14.37
2019-02-24T00:58:17.492Z,16.77
2019-02-24T01:00:47.776Z,15.93
2019-02-24T01:03:18.292Z,26.73
2019-02-24T01:05:48.677Z,18.00
2019-02-24T01:08:19.082Z,17.33
2019-02-24T01:10:49.333Z,16.13
2019-02-24T01:13:20.574Z,17.77
2019-02-24T01:15:50.807Z,19.67
2019-02-24T01:18:21.031Z,19.60
2019-02-24T01:20:51.330Z,13.73
2019-02-24T01:23:21.557Z,18.37
2019-02-24T01:25:51.978Z,18.93
2019-02-24T01:28:25.353Z,16.97
2019-02-24T01:30:54.087Z,16.00
2019-02-24T01:33:25.657Z,16.10
2019-02-24T01:35:55.890Z,20.93
2019-02-24T01:38:26.095Z,16.77
2019-02-24T01:40:56.273Z,16.00
2019-02-24T01:43:26.539Z,17.60
2019-02-24T01:45:56.791Z,19.97
2019-02-24T01:48:27.024Z,18.70
2019-02-24T01:50:57.216Z,18.80
2019-02-24T01:53:27.948Z,22.37
2019-02-24T01:55:59.194Z,19.67
2019-02-24T01:58:35.081Z,20.07
2019-02-24T02:01:02.334Z,20.90
2019-02-24T02:03:32.771Z,21.03
2019-02-24T02:06:03.081Z,19.83
2019-02-24T02:08:33.507Z,17.70
2019-02-24T02:11:03.697Z,18.47
2019-02-24T02:13:33.909Z,18.40
2019-02-24T02:16:04.123Z,15.80
2019-02-24T02:18:34.313Z,16.33
2019-02-24T02:21:04.564Z,17.80
2019-02-24T02:23:34.843Z,16.07
2019-02-24T02:26:05.304Z,20.67
2019-02-24T02:28:43.598Z,17.43
2019-02-24T02:31:07.494Z,16.47
2019-02-24T02:33:37.769Z,16.70
2019-02-24T02:36:08.076Z,20.03
2019-02-24T02:38:38.374Z,22.03
2019-02-24T02:41:08.562Z,18.33
2019-02-24T02:43:38.825Z,14.00
2019-02-24T02:46:09.100Z,17.17
2019-02-24T02:48:39.317Z,16.83
2019-02-24T02:51:09.688Z,18.27
2019-02-24T02:53:39.921Z,20.07
2019-02-24T02:56:10.236Z,25.80
2019-02-24T02:58:40.460Z,24.93
2019-02-24T03:01:10.702Z,21.43
2019-02-24T03:03:41.121Z,20.80
2019-02-24T03:06:16.688Z,20.97
2019-02-24T03:08:51.871Z,19.23
2019-02-24T03:11:22.102Z,16.50
2019-02-24T03:13:52.312Z,19.73
2019-02-24T03:16:27.888Z,16.53
2019-02-24T03:18:58.159Z,17.90
2019-02-24T03:21:28.385Z,21.77
2019-02-24T03:23:58.813Z,16.97
2019-02-24T03:26:29.030Z,22.33
2019-02-24T03:29:04.080Z,20.97
2019-02-24T03:31:31.292Z,15.80
2019-02-24T03:34:02.462Z,19.83
2019-02-24T03:36:32.765Z,18.57
2019-02-24T03:39:03.028Z,18.60
2019-02-24T03:41:34.385Z,16.77
2019-02-24T03:44:04.690Z,17.57
2019-02-24T03:46:34.938Z,14.93
2019-02-24T03:49:05.148Z,16.30
2019-02-24T03:51:35.439Z,15.40
2019-02-24T03:54:06.736Z,13.37
2019-02-24T03:56:37.018Z,14.40
2019-02-24T03:59:14.780Z,21.43
2019-02-24T04:01:39.259Z,19.37
2019-02-24T04:04:09.827Z,17.57
2019-02-24T04:06:40.757Z,15.93
2019-02-24T04:09:11.352Z,13.67
2019-02-24T04:11:43.873Z,17.47
2019-02-24T04:14:14.167Z,21.37
2019-02-24T04:16:44.409Z,14.97
2019-02-24T04:19:14.628Z,17.23
2019-02-24T04:21:44.872Z,17.37
2019-02-24T04:24:15.084Z,22.90
2019-02-24T04:26:45.416Z,17.20
2019-02-24T04:29:24.540Z,16.60
2019-02-24T04:31:47.592Z,20.73
2019-02-24T04:34:17.850Z,17.10
2019-02-24T04:36:49.048Z,19.63
2019-02-24T04:39:19.320Z,18.90
2019-02-24T04:41:49.604Z,17.97
2019-02-24T04:44:19.991Z,18.03
2019-02-24T04:46:50.278Z,15.03
2019-02-24T04:49:20.565Z,17.30
2019-02-24T04:51:50.823Z,16.90
2019-02-24T04:54:21.067Z,17.20
2019-02-24T04:56:51.284Z,15.93
2019-02-24T04:59:21.596Z,14.17
2019-02-24T05:01:51.859Z,16.70
2019-02-24T05:04:22.280Z,18.57
2019-02-24T05:06:52.625Z,16.17
2019-02-24T05:09:22.875Z,16.57
2019-02-24T05:11:53.150Z,17.67
2019-02-24T05:14:23.372Z,18.73
2019-02-24T05:16:53.624Z,19.40
2019-02-24T05:19:23.838Z,16.17
2019-02-24T05:21:53.993Z,18.80
2019-02-24T05:24:24.278Z,17.10
2019-02-24T05:26:54.516Z,17.73
2019-02-24T05:29:24.727Z,15.87
2019-02-24T05:31:55.161Z,22.57
2019-02-24T05:34:25.411Z,15.50
2019-02-24T05:36:55.640Z,16.93
2019-02-24T05:39:25.871Z,22.03
2019-02-24T05:41:56.066Z,29.77
2019-02-24T05:44:26.267Z,34.70
2019-02-24T05:46:56.660Z,20.97
2019-02-24T05:49:26.861Z,28.50
2019-02-24T05:51:57.107Z,23.97
2019-02-24T05:54:28.330Z,22.00
2019-02-24T05:56:58.624Z,15.80
2019-02-24T05:59:28.912Z,24.17
2019-02-24T06:01:59.337Z,24.57
2019-02-24T06:04:29.748Z,19.17
2019-02-24T06:06:59.978Z,15.03
2019-02-24T06:09:30.273Z,20.30
2019-02-24T06:12:00.472Z,18.73
2019-02-24T06:14:30.756Z,19.03
2019-02-24T06:17:00.975Z,19.30
2019-02-24T06:19:31.413Z,17.57
2019-02-24T06:22:01.682Z,17.83
2019-02-24T06:24:31.947Z,17.67
2019-02-24T06:27:02.180Z,18.90
2019-02-24T06:29:32.435Z,16.07
2019-02-24T06:32:02.680Z,18.00
2019-02-24T06:34:32.884Z,63.87
2019-02-24T06:37:03.118Z,30.07
2019-02-24T06:39:33.332Z,18.40
2019-02-24T06:42:03.633Z,17.37
2019-02-24T06:44:33.837Z,15.70
2019-02-24T06:47:04.017Z,17.27
2019-02-24T06:49:34.248Z,17.17
2019-02-24T06:52:04.516Z,16.33
2019-02-24T06:54:34.768Z,16.33
2019-02-24T06:57:05.018Z,18.27
2019-02-24T06:59:35.228Z,20.20
2019-02-24T07:02:05.439Z,20.57
2019-02-24T07:04:36.036Z,21.23
2019-02-24T07:07:07.430Z,20.17
2019-02-24T07:09:37.686Z,14.00
2019-02-24T07:12:08.771Z,16.63
2019-02-24T07:14:39.055Z,17.97
2019-02-24T07:17:09.266Z,17.03
2019-02-24T07:19:39.519Z,19.37
2019-02-24T07:22:09.748Z,16.20
2019-02-24T07:24:40.025Z,14.73
2019-02-24T07:27:10.251Z,16.10
2019-02-24T07:29:40.483Z,19.00
2019-02-24T07:32:10.702Z,17.63
2019-02-24T07:34:40.953Z,19.17
2019-02-24T07:37:13.179Z,16.97
2019-02-24T07:39:43.161Z,21.60
2019-02-24T07:42:13.407Z,19.43
2019-02-24T07:44:43.641Z,18.83
2019-02-24T07:47:13.879Z,18.00
2019-02-24T07:49:44.207Z,17.80
2019-02-24T07:52:14.430Z,15.13
2019-02-24T07:54:44.666Z,21.60
2019-02-24T07:57:14.903Z,17.80
2019-02-24T07:59:45.125Z,15.87
2019-02-24T08:02:15.381Z,20.03
2019-02-24T08:04:46.004Z,20.97
2019-02-24T08:07:16.206Z,16.00
2019-02-24T08:09:46.942Z,21.43
2019-02-24T08:12:17.251Z,20.43
2019-02-24T08:14:47.461Z,24.17
2019-02-24T08:17:18.715Z,19.17
2019-02-24T08:19:48.899Z,20.47
2019-02-24T08:22:20.136Z,17.90
2019-02-24T08:24:52.184Z,15.97
2019-02-24T08:27:22.532Z,18.97
2019-02-24T08:29:52.762Z,16.10
2019-02-24T08:32:23.028Z,18.57
2019-02-24T08:34:53.196Z,20.93
2019-02-24T08:37:23.536Z,21.17
2019-02-24T08:39:54.972Z,18.97
2019-02-24T08:42:26.317Z,20.40
2019-02-24T08:44:56.529Z,15.17
2019-02-24T08:47:26.758Z,17.57
2019-02-24T08:49:57.093Z,20.60
2019-02-24T08:52:27.260Z,18.77
2019-02-24T08:54:57.618Z,18.70
2019-02-24T08:57:27.826Z,15.63
2019-02-24T08:59:58.077Z,15.93
2019-02-24T09:02:28.285Z,14.80
2019-02-24T09:04:58.934Z,17.73
2019-02-24T09:07:29.117Z,18.73
2019-02-24T09:09:59.293Z,20.40
2019-02-24T09:12:29.514Z,15.40
2019-02-24T09:14:59.763Z,18.20
2019-02-24T09:17:30.048Z,15.73
2019-02-24T09:20:00.360Z,20.20
2019-02-24T09:22:32.688Z,13.90
2019-02-24T09:25:03.481Z,17.73
2019-02-24T09:27:33.821Z,17.33
2019-02-24T09:30:04.531Z,15.63
2019-02-24T09:32:34.848Z,20.23
2019-02-24T09:35:05.223Z,16.37
2019-02-24T09:37:35.463Z,16.27
2019-02-24T09:40:08.792Z,16.87
2019-02-24T09:42:39.079Z,16.30
2019-02-24T09:45:09.549Z,15.47
2019-02-24T09:47:46.394Z,14.63
2019-02-24T09:50:12.065Z,15.87
2019-02-24T09:52:42.349Z,15.57
2019-02-24T09:55:12.688Z,18.53
2019-02-24T09:57:42.947Z,18.53
2019-02-24T10:00:13.249Z,16.67
2019-02-24T10:02:48.415Z,15.27
2019-02-24T10:05:19.018Z,16.40
2019-02-24T10:07:49.305Z,13.93
2019-02-24T10:10:20.484Z,17.83
2019-02-24T10:12:50.709Z,14.20
2019-02-24T10:15:21.073Z,18.17
2019-02-24T10:17:51.443Z,13.90
2019-02-24T10:20:21.684Z,14.37
2019-02-24T10:22:53.731Z,14.43
2019-02-24T10:25:24.055Z,12.90
2019-02-24T10:27:54.362Z,13.40
2019-02-24T10:30:24.541Z,13.33
2019-02-24T10:32:54.913Z,15.07
2019-02-24T10:35:25.094Z,13.00
2019-02-24T10:37:55.463Z,13.03
2019-02-24T10:40:25.723Z,12.40
2019-02-24T10:42:55.998Z,15.50
2019-02-24T10:45:26.333Z,13.30
2019-02-24T10:47:56.593Z,15.10
2019-02-24T10:50:27.106Z,14.50
2019-02-24T10:52:57.307Z,14.57
2019-02-24T10:55:27.532Z,14.07
2019-02-24T10:57:57.763Z,10.50
2019-02-24T11:00:28.968Z,13.00
2019-02-24T11:02:59.219Z,12.77
2019-02-24T11:05:30.023Z,23.10
2019-02-24T11:08:00.261Z,13.90
2019-02-24T11:10:30.548Z,13.07
2019-02-24T11:13:00.741Z,14.73
2019-02-24T11:15:30.945Z,13.27
2019-02-24T11:18:01.600Z,17.37
2019-02-24T11:20:32.028Z,13.40
2019-02-24T11:23:02.251Z,13.93
2019-02-24T11:25:32.459Z,16.23
2019-02-24T11:28:06.774Z,14.30
2019-02-24T11:30:38.571Z,13.73
2019-02-24T11:33:17.762Z,16.33
2019-02-24T11:35:51.560Z,13.43
2019-02-24T11:38:31.911Z,14.90
2019-02-24T11:41:02.458Z,16.70
2019-02-24T11:43:38.171Z,12.90
2019-02-24T11:46:08.810Z,13.97
2019-02-24T11:48:40.898Z,13.60
2019-02-24T11:51:11.109Z,12.20
2019-02-24T11:53:41.443Z,12.30
2019-02-24T11:56:12.799Z,14.33
2019-02-24T11:58:43.010Z,11.77
2019-02-24T12:01:13.414Z,14.13
2019-02-24T12:03:44.310Z,12.37
2019-02-24T12:06:15.111Z,17.60
2019-02-24T12:08:45.304Z,11.10
2019-02-24T12:11:15.513Z,8.87
2019-02-24T12:13:45.814Z,11.47
2019-02-24T12:16:16.297Z,12.40
2019-02-24T12:19:14.865Z,10.97
2019-02-24T12:21:49.262Z,10.13
2019-02-24T12:24:31.572Z,10.13
2019-02-24T12:27:01.784Z,11.03
2019-02-24T12:29:32.106Z,10.13
2019-02-24T12:32:09.484Z,8.60
2019-02-24T12:34:39.707Z,9.87
2019-02-24T12:37:21.437Z,8.97
2019-02-24T12:39:52.993Z,9.03
2019-02-24T12:42:26.179Z,11.67
2019-02-24T12:44:56.577Z,7.23
2019-02-24T12:47:26.866Z,7.53
2019-02-24T12:50:03.235Z,9.83
2019-02-24T12:52:29.166Z,8.53
2019-02-24T12:54:59.510Z,4.93
2019-02-24T12:57:38.618Z,6.93
2019-02-24T13:00:14.382Z,7.17
2019-02-24T13:02:44.639Z,7.93
2019-02-24T13:05:14.856Z,13.87
2019-02-24T13:07:45.070Z,6.57
2019-02-24T13:10:16.002Z,7.27
2019-02-24T13:12:46.288Z,13.07
2019-02-24T13:15:16.833Z,8.93
2019-02-24T13:17:47.858Z,8.10
2019-02-24T13:20:18.072Z,6.60
2019-02-24T13:22:48.272Z,6.27
2019-02-24T13:25:19.492Z,6.00
2019-02-24T13:27:49.836Z,8.43
2019-02-24T13:30:20.157Z,8.13
2019-02-24T13:32:50.462Z,7.53
2019-02-24T13:35:20.657Z,8.50
2019-02-24T13:37:50.873Z,7.67
2019-02-24T13:40:21.214Z,6.70
2019-02-24T13:42:51.465Z,7.40
2019-02-24T13:45:21.685Z,6.80
2019-02-24T13:47:51.881Z,8.07
2019-02-24T13:50:22.188Z,7.03
2019-02-24T13:52:52.530Z,6.27
2019-02-24T13:55:22.806Z,8.60
2019-02-24T13:57:57.762Z,7.60
2019-02-24T14:00:28.164Z,9.37
2019-02-24T14:02:58.415Z,7.10
2019-02-24T14:05:50.701Z,7.70
2019-02-24T14:08:21.281Z,7.77
2019-02-24T14:10:52.248Z,5.80
2019-02-24T14:13:24.208Z,9.50
2019-02-24T14:15:54.488Z,7.40
2019-02-24T14:18:30.209Z,6.80
2019-02-24T14:21:08.595Z,8.03
2019-02-24T14:23:39.070Z,7.40
2019-02-24T14:26:11.009Z,12.67
2019-02-24T14:28:41.308Z,9.57
2019-02-24T14:31:13.850Z,10.23
2019-02-24T14:33:44.182Z,9.77
2019-02-24T14:36:14.535Z,10.63
2019-02-24T14:38:47.940Z,9.47
2019-02-24T14:41:18.137Z,6.70
2019-02-24T14:43:50.963Z,11.40
2019-02-24T14:46:21.859Z,6.50
2019-02-24T14:48:52.106Z,4.83
2019-02-24T14:51:22.411Z,6.03
2019-02-24T14:53:52.644Z,7.37
2019-02-24T14:56:22.882Z,4.13
2019-02-24T14:59:32.707Z,7.87
2019-02-24T15:02:07.373Z,5.97
2019-02-24T15:04:46.486Z,4.90
2019-02-24T15:07:26.527Z,6.33
2019-02-24T15:10:11.641Z,5.20
2019-02-24T15:12:46.038Z,5.13
2019-02-24T15:15:21.718Z,4.20
2019-02-24T15:17:52.925Z,3.37
2019-02-24T15:20:24.911Z,8.73
2019-02-24T15:22:57.160Z,4.43
2019-02-24T15:25:27.363Z,37.97
2019-02-24T15:27:57.638Z,55.43
2019-02-24T15:30:30.136Z,34.70
2019-02-24T15:33:00.439Z,14.37
2019-02-24T15:35:30.620Z,6.83
2019-02-24T15:38:00.865Z,5.43
2019-02-24T15:40:31.155Z,5.07
2019-02-24T15:43:01.462Z,6.67
2019-02-24T15:45:31.877Z,7.40
2019-02-24T15:48:02.110Z,5.97
2019-02-24T15:50:32.299Z,5.67
2019-02-24T15:53:02.533Z,4.47
2019-02-24T15:55:37.091Z,3.67
2019-02-24T15:58:07.318Z,6.10
2019-02-24T16:00:37.674Z,6.40
2019-02-24T16:03:07.977Z,4.17
2019-02-24T16:05:38.253Z,10.87
2019-02-24T16:08:08.493Z,7.53
2019-02-24T16:10:40.181Z,8.67
2019-02-24T16:13:16.643Z,7.93
2019-02-24T16:15:42.376Z,8.13
2019-02-24T16:18:12.707Z,8.07
2019-02-24T16:20:44.602Z,8.33
2019-02-24T16:23:14.833Z,16.77
2019-02-24T16:25:45.219Z,13.93
2019-02-24T16:28:15.573Z,22.30
2019-02-24T16:30:45.832Z,23.23
2019-02-24T16:33:16.038Z,18.90
2019-02-24T16:35:46.307Z,11.60
2019-02-24T16:38:16.734Z,11.20
2019-02-24T16:40:47.049Z,16.63
2019-02-24T16:43:20.794Z,11.47
2019-02-24T16:45:51.269Z,13.83
2019-02-24T16:48:21.516Z,15.73
2019-02-24T16:50:51.765Z,16.90
2019-02-24T16:53:22.106Z,13.73
2019-02-24T16:55:52.362Z,16.37
2019-02-24T16:58:22.684Z,17.00
2019-02-24T17:00:54.134Z,8.23
2019-02-24T17:03:24.391Z,10.60
2019-02-24T17:05:54.690Z,12.10
2019-02-24T17:08:25.127Z,14.80
2019-02-24T17:10:55.572Z,17.13
2019-02-24T17:13:25.969Z,17.07
2019-02-24T17:15:56.301Z,12.00
2019-02-24T17:18:26.561Z,9.57
2019-02-24T17:20:56.833Z,11.60
2019-02-24T17:23:27.258Z,13.73
2019-02-24T17:25:58.283Z,9.70
2019-02-24T17:28:28.671Z,11.13
2019-02-24T17:30:59.247Z,10.77
2019-02-24T17:33:31.165Z,16.23
2019-02-24T17:36:03.879Z,13.07
2019-02-24T17:38:34.206Z,17.07
2019-02-24T17:41:04.549Z,12.23
2019-02-24T17:43:36.108Z,15.13
2019-02-24T17:46:06.706Z,10.40
2019-02-24T17:48:37.069Z,22.17
2019-02-24T17:51:07.776Z,12.43
2019-02-24T17:53:39.549Z,12.73
2019-02-24T17:56:25.153Z,13.40
2019-02-24T17:58:55.659Z,12.67
2019-02-24T18:01:26.266Z,12.47
2019-02-24T18:03:56.694Z,12.07
2019-02-24T18:06:27.031Z,15.43
2019-02-24T18:09:02.320Z,39.77
2019-02-24T18:11:34.529Z,21.47
2019-02-24T18:14:28.075Z,27.30
2019-02-24T18:16:58.218Z,25.63
2019-02-24T18:19:30.840Z,21.20
2019-02-24T18:22:01.183Z,18.13
2019-02-24T18:24:31.597Z,13.70
2019-02-24T18:27:01.972Z,16.37
2019-02-24T18:29:32.281Z,20.83
2019-02-24T18:32:04.157Z,22.33
2019-02-24T18:34:34.570Z,13.80
2019-02-24T18:37:05.879Z,24.20
2019-02-24T18:39:36.207Z,14.10
2019-02-24T18:42:08.090Z,15.03
2019-02-24T18:44:38.428Z,25.03
2019-02-24T18:47:08.818Z,22.43
2019-02-24T18:49:39.269Z,25.80
2019-02-24T18:52:11.386Z,24.40
2019-02-24T18:54:41.605Z,20.27
2019-02-24T18:57:15.815Z,22.53
2019-02-24T18:59:46.119Z,21.67
2019-02-24T19:02:16.407Z,15.63
2019-02-24T19:04:51.074Z,15.70
2019-02-24T19:07:24.655Z,13.47
2019-02-24T19:09:56.947Z,14.40
2019-02-24T19:12:29.815Z,15.20
2019-02-24T19:15:00.338Z,21.93
2019-02-24T19:17:30.634Z,19.17
2019-02-24T19:20:05.655Z,21.97
2019-02-24T19:22:38.123Z,22.97
2019-02-24T19:25:08.922Z,35.73
2019-02-24T19:27:39.261Z,31.37
2019-02-24T19:30:11.229Z,22.33
2019-02-24T19:32:41.595Z,18.13
2019-02-24T19:35:12.214Z,20.83
2019-02-24T19:37:42.515Z,25.00
2019-02-24T19:40:14.440Z,25.70
2019-02-24T19:42:44.839Z,17.47
2019-02-24T19:45:20.401Z,15.80
2019-02-24T19:47:50.625Z,16.33
2019-02-24T19:50:22.701Z,17.70
2019-02-24T19:53:17.221Z,14.13
2019-02-24T19:55:49.067Z,16.63
2019-02-24T19:58:20.961Z,18.37
2019-02-24T20:00:55.401Z,18.50
2019-02-24T20:03:26.701Z,18.03
2019-02-24T20:05:57.570Z,20.93
2019-02-24T20:08:27.892Z,15.20
2019-02-24T20:10:58.340Z,15.50
2019-02-24T20:13:28.762Z,18.77
2019-02-24T20:16:00.362Z,17.83
2019-02-24T20:18:31.598Z,15.70
2019-02-24T20:21:03.441Z,20.10
2019-02-24T20:23:34.267Z,21.07
2019-02-24T20:26:04.743Z,17.67
2019-02-24T20:28:34.967Z,17.70
2019-02-24T20:31:05.252Z,16.90
2019-02-24T20:33:36.545Z,16.80
2019-02-24T20:36:06.853Z,16.90
2019-02-24T20:38:37.105Z,19.20
2019-02-24T20:41:07.492Z,20.47
2019-02-24T20:43:37.992Z,22.47
2019-02-24T20:46:08.384Z,20.57
2019-02-24T20:48:38.595Z,19.97
2019-02-24T20:51:10.486Z,17.60
2019-02-24T20:53:42.107Z,16.43
2019-02-24T20:56:12.499Z,18.80
2019-02-24T20:58:43.948Z,17.93
2019-02-24T21:01:14.359Z,17.60
2019-02-24T21:03:44.791Z,16.83
2019-02-24T21:06:15.057Z,12.83
2019-02-24T21:08:45.332Z,15.23
2019-02-24T21:11:15.595Z,14.33
2019-02-24T21:13:46.214Z,15.73
2019-02-24T21:16:16.468Z,14.07
2019-02-24T21:18:46.749Z,18.03
2019-02-24T21:21:17.175Z,13.87
2019-02-24T21:23:47.543Z,14.80
2019-02-24T21:26:17.903Z,15.23
2019-02-24T21:28:49.021Z,17.53
2019-02-24T21:31:19.341Z,19.03
2019-02-24T21:33:49.606Z,20.07
2019-02-24T21:36:22.195Z,26.93
2019-02-24T21:38:52.535Z,32.77
2019-02-24T21:41:22.793Z,24.83
2019-02-24T21:43:53.029Z,23.47
2019-02-24T21:46:23.280Z,33.60
2019-02-24T21:48:53.573Z,21.20
2019-02-24T21:51:24.283Z,21.10
2019-02-24T21:53:54.560Z,30.40
2019-02-24T21:56:24.783Z,24.97
2019-02-24T21:58:54.969Z,21.67
2019-02-24T22:01:25.217Z,15.73
2019-02-24T22:03:55.470Z,20.03
2019-02-24T22:06:26.707Z,20.93
2019-02-24T22:08:57.080Z,23.73
2019-02-24T22:11:27.285Z,22.77
2019-02-24T22:13:57.709Z,19.27
2019-02-24T22:16:28.036Z,18.70
2019-02-24T22:18:58.301Z,13.83
2019-02-24T22:21:28.555Z,14.57
2019-02-24T22:23:58.920Z,14.27
2019-02-24T22:26:29.158Z,15.83
2019-02-24T22:28:59.394Z,16.00
2019-02-24T22:31:29.596Z,13.60
2019-02-24T22:33:59.902Z,15.30
2019-02-24T22:36:30.112Z,16.13
2019-02-24T22:39:00.395Z,19.17
2019-02-24T22:41:31.317Z,20.33
2019-02-24T22:44:01.643Z,16.43
2019-02-24T22:46:31.928Z,15.10
2019-02-24T22:49:03.207Z,14.67
2019-02-24T22:51:33.454Z,19.07
2019-02-24T22:54:03.841Z,16.80
2019-02-24T22:56:34.102Z,17.10
2019-02-24T22:59:04.342Z,15.93
2019-02-24T23:01:38.039Z,19.10
2019-02-24T23:04:13.226Z,15.47
2019-02-24T23:06:44.243Z,13.33
2019-02-24T23:09:21.428Z,13.90
2019-02-24T23:11:51.897Z,16.73
2019-02-24T23:14:23.694Z,14.43
2019-02-24T23:16:54.004Z,16.83
2019-02-24T23:19:24.449Z,15.83
2019-02-24T23:21:54.669Z,15.33
2019-02-24T23:24:24.894Z,18.30
2019-02-24T23:26:55.168Z,16.40
2019-02-24T23:29:25.381Z,15.63
2019-02-24T23:31:55.878Z,16.57
2019-02-24T23:34:26.121Z,18.27
2019-02-24T23:36:56.324Z,16.33
2019-02-24T23:39:26.588Z,17.87
2019-02-24T23:41:56.813Z,16.43
2019-02-24T23:44:27.049Z,15.87
2019-02-24T23:46:57.375Z,15.43
2019-02-24T23:49:27.655Z,13.73
2019-02-24T23:51:58.057Z,17.97
2019-02-24T23:54:28.315Z,15.27
2019-02-24T23:56:58.545Z,17.17
2019-02-24T23:59:28.735Z,13.90
